Terminal Aerodrome Forecast
Issued by NWS

Home | Current Version | Previous Version | Text Only | Print | Product List | Glossary On
Versions: 1 2 3 4 5 6 7 8 9 10 11 12 13
000
FTUS41 KPHI 302300 RRA
TAFMIV
TAF
KMIV 302341Z 3100/3124 15006KT P6SM BKN035
     FM310700 VRB03KT 4SM BR FEW007 OVC015
     FM311500 22007KT P6SM FEW015 BKN100
     FM311900 20008G16KT P6SM VCSH BKN035 BKN100=

USA.gov is the U.S. government's official web portal to all federal, state and local government web resources and services.